sensor_id;sensor_type;location;lat;lon;timestamp;P1;durP1;ratioP1;P2;durP2;ratioP2
56629;SDS011;42502;40.732;-74.254;2023-04-08T00:01:30;8.77;;;0.43;;
56629;SDS011;42502;40.732;-74.254;2023-04-08T00:03:31;5.50;;;0.70;;
56629;SDS011;42502;40.732;-74.254;2023-04-08T00:05:32;5.63;;;0.45;;
56629;SDS011;42502;40.732;-74.254;2023-04-08T00:07:39;2.75;;;0.30;;
56629;SDS011;42502;40.732;-74.254;2023-04-08T00:09:43;5.70;;;0.50;;
56629;SDS011;42502;40.732;-74.254;2023-04-08T00:11:44;1.30;;;0.35;;
56629;SDS011;42502;40.732;-74.254;2023-04-08T00:13:44;8.93;;;0.60;;
56629;SDS011;42502;40.732;-74.254;2023-04-08T00:15:45;6.22;;;0.40;;
56629;SDS011;42502;40.732;-74.254;2023-04-08T00:17:46;5.35;;;0.40;;
56629;SDS011;42502;40.732;-74.254;2023-04-08T00:19:47;4.22;;;0.30;;
56629;SDS011;42502;40.732;-74.254;2023-04-08T00:21:48;0.98;;;0.30;;
56629;SDS011;42502;40.732;-74.254;2023-04-08T00:23:49;2.92;;;0.40;;
56629;SDS011;42502;40.732;-74.254;2023-04-08T00:25:50;6.80;;;0.50;;
56629;SDS011;42502;40.732;-74.254;2023-04-08T00:27:51;4.10;;;0.50;;
56629;SDS011;42502;40.732;-74.254;2023-04-08T00:29:51;1.85;;;0.30;;
56629;SDS011;42502;40.732;-74.254;2023-04-08T00:31:52;3.70;;;0.35;;
56629;SDS011;42502;40.732;-74.254;2023-04-08T00:33:53;5.57;;;0.40;;
56629;SDS011;42502;40.732;-74.254;2023-04-08T00:35:55;6.47;;;0.40;;
56629;SDS011;42502;40.732;-74.254;2023-04-08T00:37:55;10.90;;;0.57;;
56629;SDS011;42502;40.732;-74.254;2023-04-08T00:39:56;6.15;;;0.77;;
56629;SDS011;42502;40.732;-74.254;2023-04-08T00:41:57;9.45;;;0.52;;
56629;SDS011;42502;40.732;-74.254;2023-04-08T00:43:58;8.93;;;0.50;;
56629;SDS011;42502;40.732;-74.254;2023-04-08T00:45:59;4.63;;;0.40;;
56629;SDS011;42502;40.732;-74.254;2023-04-08T00:48:00;7.95;;;0.40;;
56629;SDS011;42502;40.732;-74.254;2023-04-08T00:50:02;4.47;;;0.40;;
56629;SDS011;42502;40.732;-74.254;2023-04-08T00:52:04;11.35;;;1.08;;
56629;SDS011;42502;40.732;-74.254;2023-04-08T00:54:05;5.63;;;0.45;;
56629;SDS011;42502;40.732;-74.254;2023-04-08T00:56:06;6.13;;;0.40;;
56629;SDS011;42502;40.732;-74.254;2023-04-08T00:58:07;4.63;;;0.50;;
56629;SDS011;42502;40.732;-74.254;2023-04-08T01:00:08;6.97;;;0.50;;
56629;SDS011;42502;40.732;-74.254;2023-04-08T01:02:18;8.15;;;0.50;;
56629;SDS011;42502;40.732;-74.254;2023-04-08T01:09:34;7.72;;;0.40;;
56629;SDS011;42502;40.732;-74.254;2023-04-08T01:11:40;7.40;;;0.40;;
56629;SDS011;42502;40.732;-74.254;2023-04-08T01:13:43;7.97;;;0.40;;
56629;SDS011;42502;40.732;-74.254;2023-04-08T01:15:45;5.85;;;0.40;;
56629;SDS011;42502;40.732;-74.254;2023-04-08T01:17:46;2.15;;;0.40;;
56629;SDS011;42502;40.732;-74.254;2023-04-08T01:19:49;3.42;;;0.50;;
56629;SDS011;42502;40.732;-74.254;2023-04-08T01:21:51;2.25;;;1.08;;
56629;SDS011;42502;40.732;-74.254;2023-04-08T01:23:58;6.95;;;0.30;;
56629;SDS011;42502;40.732;-74.254;2023-04-08T01:26:05;6.22;;;0.35;;
56629;SDS011;42502;40.732;-74.254;2023-04-08T01:28:10;2.53;;;0.38;;
56629;SDS011;42502;40.732;-74.254;2023-04-08T01:30:17;6.75;;;0.40;;
56629;SDS011;42502;40.732;-74.254;2023-04-08T01:32:20;6.30;;;0.30;;
56629;SDS011;42502;40.732;-74.254;2023-04-08T01:34:21;6.00;;;0.40;;
56629;SDS011;42502;40.732;-74.254;2023-04-08T01:36:24;7.35;;;0.38;;
56629;SDS011;42502;40.732;-74.254;2023-04-08T01:38:26;3.20;;;0.43;;
56629;SDS011;42502;40.732;-74.254;2023-04-08T01:40:28;4.18;;;0.30;;
56629;SDS011;42502;40.732;-74.254;2023-04-08T01:42:29;3.63;;;0.43;;
56629;SDS011;42502;40.732;-74.254;2023-04-08T01:44:35;4.00;;;0.28;;
56629;SDS011;42502;40.732;-74.254;2023-04-08T01:46:39;3.65;;;0.50;;
56629;SDS011;42502;40.732;-74.254;2023-04-08T01:48:43;2.65;;;0.32;;
56629;SDS011;42502;40.732;-74.254;2023-04-08T01:50:45;2.38;;;0.38;;
56629;SDS011;42502;40.732;-74.254;2023-04-08T01:52:47;3.75;;;0.30;;
56629;SDS011;42502;40.732;-74.254;2023-04-08T01:54:52;7.07;;;0.40;;
56629;SDS011;42502;40.732;-74.254;2023-04-08T01:56:52;8.60;;;0.32;;
56629;SDS011;42502;40.732;-74.254;2023-04-08T01:58:56;2.17;;;0.60;;
56629;SDS011;42502;40.732;-74.254;2023-04-08T02:01:00;6.80;;;0.55;;
56629;SDS011;42502;40.732;-74.254;2023-04-08T02:03:01;14.70;;;0.90;;
56629;SDS011;42502;40.732;-74.254;2023-04-08T02:05:06;14.07;;;0.90;;
56629;SDS011;42502;40.732;-74.254;2023-04-08T02:07:12;12.93;;;0.88;;
56629;SDS011;42502;40.732;-74.254;2023-04-08T02:09:14;8.80;;;0.70;;
56629;SDS011;42502;40.732;-74.254;2023-04-08T02:11:14;12.82;;;0.80;;
56629;SDS011;42502;40.732;-74.254;2023-04-08T02:13:15;15.43;;;1.13;;
56629;SDS011;42502;40.732;-74.254;2023-04-08T02:15:19;17.50;;;0.73;;
56629;SDS011;42502;40.732;-74.254;2023-04-08T02:17:29;16.15;;;0.77;;
56629;SDS011;42502;40.732;-74.254;2023-04-08T02:22:16;11.23;;;1.38;;
56629;SDS011;42502;40.732;-74.254;2023-04-08T02:24:23;9.80;;;0.85;;
56629;SDS011;42502;40.732;-74.254;2023-04-08T02:26:26;13.18;;;0.88;;
56629;SDS011;42502;40.732;-74.254;2023-04-08T02:28:26;7.75;;;0.80;;
56629;SDS011;42502;40.732;-74.254;2023-04-08T02:30:32;7.85;;;0.60;;
56629;SDS011;42502;40.732;-74.254;2023-04-08T02:32:36;6.10;;;0.80;;
56629;SDS011;42502;40.732;-74.254;2023-04-08T02:34:39;7.18;;;0.60;;
56629;SDS011;42502;40.732;-74.254;2023-04-08T02:36:41;8.50;;;0.70;;
56629;SDS011;42502;40.732;-74.254;2023-04-08T02:38:48;7.63;;;0.80;;
56629;SDS011;42502;40.732;-74.254;2023-04-08T02:40:49;12.23;;;0.60;;
56629;SDS011;42502;40.732;-74.254;2023-04-08T02:42:50;6.65;;;1.00;;
56629;SDS011;42502;40.732;-74.254;2023-04-08T02:44:51;10.23;;;0.85;;
56629;SDS011;42502;40.732;-74.254;2023-04-08T02:46:52;12.30;;;0.70;;
56629;SDS011;42502;40.732;-74.254;2023-04-08T02:48:53;10.13;;;0.70;;
56629;SDS011;42502;40.732;-74.254;2023-04-08T02:50:53;10.52;;;0.93;;
56629;SDS011;42502;40.732;-74.254;2023-04-08T02:52:57;5.32;;;0.60;;
56629;SDS011;42502;40.732;-74.254;2023-04-08T02:54:58;8.27;;;0.60;;
56629;SDS011;42502;40.732;-74.254;2023-04-08T02:56:59;10.32;;;0.73;;
56629;SDS011;42502;40.732;-74.254;2023-04-08T02:58:59;9.85;;;0.70;;
56629;SDS011;42502;40.732;-74.254;2023-04-08T03:01:00;5.07;;;0.60;;
56629;SDS011;42502;40.732;-74.254;2023-04-08T03:03:01;9.77;;;0.70;;
56629;SDS011;42502;40.732;-74.254;2023-04-08T03:05:02;9.32;;;0.70;;
56629;SDS011;42502;40.732;-74.254;2023-04-08T03:07:04;5.57;;;0.57;;
56629;SDS011;42502;40.732;-74.254;2023-04-08T03:09:05;8.43;;;0.70;;
56629;SDS011;42502;40.732;-74.254;2023-04-08T03:11:06;10.00;;;0.63;;
56629;SDS011;42502;40.732;-74.254;2023-04-08T03:13:07;7.05;;;0.70;;
56629;SDS011;42502;40.732;-74.254;2023-04-08T03:15:13;4.10;;;0.70;;
56629;SDS011;42502;40.732;-74.254;2023-04-08T03:17:17;7.32;;;0.68;;
56629;SDS011;42502;40.732;-74.254;2023-04-08T03:19:18;6.95;;;0.68;;
56629;SDS011;42502;40.732;-74.254;2023-04-08T03:21:19;7.72;;;0.60;;
56629;SDS011;42502;40.732;-74.254;2023-04-08T03:23:20;3.25;;;0.60;;
56629;SDS011;42502;40.732;-74.254;2023-04-08T03:25:20;4.60;;;0.63;;
56629;SDS011;42502;40.732;-74.254;2023-04-08T03:27:21;4.47;;;0.60;;
56629;SDS011;42502;40.732;-74.254;2023-04-08T03:29:22;4.80;;;0.60;;
56629;SDS011;42502;40.732;-74.254;2023-04-08T03:31:23;5.03;;;0.63;;
56629;SDS011;42502;40.732;-74.254;2023-04-08T03:33:25;3.72;;;0.50;;
56629;SDS011;42502;40.732;-74.254;2023-04-08T03:35:26;6.82;;;0.63;;
56629;SDS011;42502;40.732;-74.254;2023-04-08T03:37:27;4.15;;;0.50;;
56629;SDS011;42502;40.732;-74.254;2023-04-08T03:39:30;4.22;;;0.57;;
56629;SDS011;42502;40.732;-74.254;2023-04-08T03:41:31;4.53;;;0.93;;
56629;SDS011;42502;40.732;-74.254;2023-04-08T03:43:32;4.82;;;0.50;;
56629;SDS011;42502;40.732;-74.254;2023-04-08T03:45:33;4.65;;;0.80;;
56629;SDS011;42502;40.732;-74.254;2023-04-08T03:47:33;5.05;;;0.55;;
56629;SDS011;42502;40.732;-74.254;2023-04-08T03:49:37;4.68;;;0.50;;
56629;SDS011;42502;40.732;-74.254;2023-04-08T03:51:38;5.53;;;0.60;;
56629;SDS011;42502;40.732;-74.254;2023-04-08T03:53:41;2.97;;;0.50;;
56629;SDS011;42502;40.732;-74.254;2023-04-08T03:55:42;3.85;;;0.55;;
56629;SDS011;42502;40.732;-74.254;2023-04-08T03:57:43;3.97;;;0.57;;
56629;SDS011;42502;40.732;-74.254;2023-04-08T03:59:44;1.70;;;0.50;;
56629;SDS011;42502;40.732;-74.254;2023-04-08T04:01:45;2.65;;;0.50;;
56629;SDS011;42502;40.732;-74.254;2023-04-08T04:03:46;7.13;;;0.50;;
56629;SDS011;42502;40.732;-74.254;2023-04-08T04:05:47;7.05;;;0.50;;
56629;SDS011;42502;40.732;-74.254;2023-04-08T04:07:48;2.15;;;0.43;;
56629;SDS011;42502;40.732;-74.254;2023-04-08T04:09:49;4.85;;;0.88;;
56629;SDS011;42502;40.732;-74.254;2023-04-08T04:11:55;3.63;;;0.50;;
56629;SDS011;42502;40.732;-74.254;2023-04-08T04:13:59;2.22;;;0.50;;
56629;SDS011;42502;40.732;-74.254;2023-04-08T04:15:59;4.00;;;0.47;;
56629;SDS011;42502;40.732;-74.254;2023-04-08T04:18:00;0.70;;;0.38;;
56629;SDS011;42502;40.732;-74.254;2023-04-08T04:20:04;2.88;;;0.40;;
56629;SDS011;42502;40.732;-74.254;2023-04-08T04:22:06;4.57;;;0.47;;
56629;SDS011;42502;40.732;-74.254;2023-04-08T04:24:07;3.22;;;0.30;;
56629;SDS011;42502;40.732;-74.254;2023-04-08T04:26:08;0.82;;;0.32;;
56629;SDS011;42502;40.732;-74.254;2023-04-08T04:28:09;1.83;;;0.40;;
56629;SDS011;42502;40.732;-74.254;2023-04-08T04:30:10;3.33;;;0.40;;
56629;SDS011;42502;40.732;-74.254;2023-04-08T04:32:14;1.40;;;0.32;;
56629;SDS011;42502;40.732;-74.254;2023-04-08T04:34:15;0.63;;;0.40;;
56629;SDS011;42502;40.732;-74.254;2023-04-08T04:36:16;1.92;;;0.30;;
56629;SDS011;42502;40.732;-74.254;2023-04-08T04:38:20;1.50;;;0.35;;
56629;SDS011;42502;40.732;-74.254;2023-04-08T04:40:21;1.88;;;0.40;;
56629;SDS011;42502;40.732;-74.254;2023-04-08T04:42:22;1.10;;;0.30;;
56629;SDS011;42502;40.732;-74.254;2023-04-08T04:44:23;1.65;;;0.30;;
56629;SDS011;42502;40.732;-74.254;2023-04-08T04:46:23;0.82;;;0.32;;
56629;SDS011;42502;40.732;-74.254;2023-04-08T04:48:24;2.17;;;0.30;;
56629;SDS011;42502;40.732;-74.254;2023-04-08T04:50:28;2.40;;;0.38;;
56629;SDS011;42502;40.732;-74.254;2023-04-08T04:52:29;1.70;;;0.40;;
56629;SDS011;42502;40.732;-74.254;2023-04-08T04:54:30;1.25;;;0.30;;
56629;SDS011;42502;40.732;-74.254;2023-04-08T04:56:33;1.77;;;0.22;;
56629;SDS011;42502;40.732;-74.254;2023-04-08T04:58:37;1.13;;;0.30;;
56629;SDS011;42502;40.732;-74.254;2023-04-08T05:00:38;1.55;;;0.20;;
56629;SDS011;42502;40.732;-74.254;2023-04-08T05:02:39;1.13;;;0.30;;
56629;SDS011;42502;40.732;-74.254;2023-04-08T05:04:39;0.80;;;0.22;;
56629;SDS011;42502;40.732;-74.254;2023-04-08T05:06:43;0.90;;;0.30;;
56629;SDS011;42502;40.732;-74.254;2023-04-08T05:08:44;2.10;;;0.20;;
56629;SDS011;42502;40.732;-74.254;2023-04-08T05:10:45;1.23;;;0.30;;
56629;SDS011;42502;40.732;-74.254;2023-04-08T05:12:46;1.35;;;0.30;;
56629;SDS011;42502;40.732;-74.254;2023-04-08T05:14:49;0.30;;;0.20;;
56629;SDS011;42502;40.732;-74.254;2023-04-08T05:16:53;1.10;;;0.20;;
56629;SDS011;42502;40.732;-74.254;2023-04-08T05:18:53;1.05;;;0.25;;
56629;SDS011;42502;40.732;-74.254;2023-04-08T05:20:54;1.52;;;0.20;;
56629;SDS011;42502;40.732;-74.254;2023-04-08T05:22:55;0.95;;;0.20;;
56629;SDS011;42502;40.732;-74.254;2023-04-08T05:24:58;0.30;;;0.30;;
56629;SDS011;42502;40.732;-74.254;2023-04-08T05:27:05;1.05;;;0.20;;
56629;SDS011;42502;40.732;-74.254;2023-04-08T05:29:06;0.50;;;0.20;;
56629;SDS011;42502;40.732;-74.254;2023-04-08T05:31:07;1.10;;;0.30;;
56629;SDS011;42502;40.732;-74.254;2023-04-08T05:33:10;0.93;;;0.30;;
56629;SDS011;42502;40.732;-74.254;2023-04-08T05:35:11;0.40;;;0.25;;
56629;SDS011;42502;40.732;-74.254;2023-04-08T05:37:11;0.95;;;0.28;;
56629;SDS011;42502;40.732;-74.254;2023-04-08T05:39:12;3.05;;;0.28;;
56629;SDS011;42502;40.732;-74.254;2023-04-08T05:41:16;0.75;;;0.20;;
56629;SDS011;42502;40.732;-74.254;2023-04-08T05:43:20;1.45;;;0.30;;
56629;SDS011;42502;40.732;-74.254;2023-04-08T05:45:21;0.30;;;0.20;;
56629;SDS011;42502;40.732;-74.254;2023-04-08T05:47:22;0.60;;;0.20;;
56629;SDS011;42502;40.732;-74.254;2023-04-08T05:49:22;1.30;;;0.20;;
56629;SDS011;42502;40.732;-74.254;2023-04-08T05:51:23;0.30;;;0.20;;
56629;SDS011;42502;40.732;-74.254;2023-04-08T05:53:24;1.63;;;0.22;;
56629;SDS011;42502;40.732;-74.254;2023-04-08T05:55:25;0.40;;;0.20;;
56629;SDS011;42502;40.732;-74.254;2023-04-08T05:57:26;0.50;;;0.30;;
56629;SDS011;42502;40.732;-74.254;2023-04-08T05:59:27;0.45;;;0.20;;
56629;SDS011;42502;40.732;-74.254;2023-04-08T06:01:30;0.28;;;0.20;;
56629;SDS011;42502;40.732;-74.254;2023-04-08T06:03:31;0.20;;;0.15;;
56629;SDS011;42502;40.732;-74.254;2023-04-08T06:05:32;0.70;;;0.20;;
56629;SDS011;42502;40.732;-74.254;2023-04-08T06:07:32;0.75;;;0.40;;
56629;SDS011;42502;40.732;-74.254;2023-04-08T06:09:34;1.08;;;0.20;;
56629;SDS011;42502;40.732;-74.254;2023-04-08T06:11:36;1.42;;;0.30;;
56629;SDS011;42502;40.732;-74.254;2023-04-08T06:13:39;0.43;;;0.25;;
56629;SDS011;42502;40.732;-74.254;2023-04-08T06:15:41;0.20;;;0.10;;
56629;SDS011;42502;40.732;-74.254;2023-04-08T06:17:48;1.33;;;0.50;;
56629;SDS011;42502;40.732;-74.254;2023-04-08T06:19:49;0.20;;;0.20;;
56629;SDS011;42502;40.732;-74.254;2023-04-08T06:21:52;0.32;;;0.20;;
56629;SDS011;42502;40.732;-74.254;2023-04-08T06:23:57;0.45;;;0.22;;
56629;SDS011;42502;40.732;-74.254;2023-04-08T06:26:04;1.48;;;0.20;;
56629;SDS011;42502;40.732;-74.254;2023-04-08T06:28:05;0.68;;;0.20;;
56629;SDS011;42502;40.732;-74.254;2023-04-08T06:30:08;0.22;;;0.20;;
56629;SDS011;42502;40.732;-74.254;2023-04-08T06:32:09;0.20;;;0.20;;
56629;SDS011;42502;40.732;-74.254;2023-04-08T06:34:13;0.35;;;0.20;;
56629;SDS011;42502;40.732;-74.254;2023-04-08T06:36:14;0.95;;;0.10;;
56629;SDS011;42502;40.732;-74.254;2023-04-08T06:38:15;1.02;;;0.20;;
56629;SDS011;42502;40.732;-74.254;2023-04-08T06:40:16;0.40;;;0.20;;
56629;SDS011;42502;40.732;-74.254;2023-04-08T06:42:17;0.30;;;0.20;;
56629;SDS011;42502;40.732;-74.254;2023-04-08T06:44:18;0.20;;;0.20;;
56629;SDS011;42502;40.732;-74.254;2023-04-08T06:46:18;0.80;;;0.30;;
56629;SDS011;42502;40.732;-74.254;2023-04-08T06:48:23;0.70;;;0.20;;
56629;SDS011;42502;40.732;-74.254;2023-04-08T06:50:30;0.70;;;0.20;;
56629;SDS011;42502;40.732;-74.254;2023-04-08T06:54:34;1.00;;;0.10;;
56629;SDS011;42502;40.732;-74.254;2023-04-08T06:56:35;1.08;;;0.10;;
56629;SDS011;42502;40.732;-74.254;2023-04-08T06:58:36;0.30;;;0.20;;
56629;SDS011;42502;40.732;-74.254;2023-04-08T07:00:38;0.45;;;0.20;;
56629;SDS011;42502;40.732;-74.254;2023-04-08T07:02:38;0.20;;;0.20;;
56629;SDS011;42502;40.732;-74.254;2023-04-08T07:04:42;0.47;;;0.20;;
56629;SDS011;42502;40.732;-74.254;2023-04-08T07:06:43;0.32;;;0.10;;
56629;SDS011;42502;40.732;-74.254;2023-04-08T07:08:46;0.30;;;0.17;;
56629;SDS011;42502;40.732;-74.254;2023-04-08T07:10:47;0.20;;;0.10;;
56629;SDS011;42502;40.732;-74.254;2023-04-08T07:12:48;0.20;;;0.20;;
56629;SDS011;42502;40.732;-74.254;2023-04-08T07:14:48;0.22;;;0.10;;
56629;SDS011;42502;40.732;-74.254;2023-04-08T07:16:49;0.20;;;0.20;;
56629;SDS011;42502;40.732;-74.254;2023-04-08T07:18:50;0.10;;;0.10;;
56629;SDS011;42502;40.732;-74.254;2023-04-08T07:20:51;0.32;;;0.13;;
56629;SDS011;42502;40.732;-74.254;2023-04-08T07:22:56;1.13;;;0.20;;
56629;SDS011;42502;40.732;-74.254;2023-04-08T07:24:57;0.10;;;0.10;;
56629;SDS011;42502;40.732;-74.254;2023-04-08T07:26:58;0.40;;;0.25;;
56629;SDS011;42502;40.732;-74.254;2023-04-08T07:28:59;0.28;;;0.20;;
56629;SDS011;42502;40.732;-74.254;2023-04-08T07:31:10;1.00;;;0.20;;
56629;SDS011;42502;40.732;-74.254;2023-04-08T07:33:12;1.10;;;0.17;;
56629;SDS011;42502;40.732;-74.254;2023-04-08T07:35:14;0.38;;;0.17;;
56629;SDS011;42502;40.732;-74.254;2023-04-08T07:37:23;0.10;;;0.10;;
56629;SDS011;42502;40.732;-74.254;2023-04-08T07:39:23;0.20;;;0.20;;
56629;SDS011;42502;40.732;-74.254;2023-04-08T07:41:27;0.20;;;0.10;;
56629;SDS011;42502;40.732;-74.254;2023-04-08T07:43:31;0.30;;;0.30;;
56629;SDS011;42502;40.732;-74.254;2023-04-08T07:45:36;0.10;;;0.10;;
56629;SDS011;42502;40.732;-74.254;2023-04-08T07:47:37;0.30;;;0.20;;
56629;SDS011;42502;40.732;-74.254;2023-04-08T07:49:37;0.20;;;0.20;;
56629;SDS011;42502;40.732;-74.254;2023-04-08T07:51:38;0.30;;;0.10;;
56629;SDS011;42502;40.732;-74.254;2023-04-08T07:53:39;0.75;;;0.15;;
56629;SDS011;42502;40.732;-74.254;2023-04-08T07:55:40;0.20;;;0.20;;
56629;SDS011;42502;40.732;-74.254;2023-04-08T07:57:41;0.15;;;0.10;;
56629;SDS011;42502;40.732;-74.254;2023-04-08T07:59:42;0.30;;;0.10;;
56629;SDS011;42502;40.732;-74.254;2023-04-08T08:01:46;0.20;;;0.20;;
56629;SDS011;42502;40.732;-74.254;2023-04-08T08:03:47;0.77;;;0.10;;
56629;SDS011;42502;40.732;-74.254;2023-04-08T08:05:53;0.30;;;0.20;;
56629;SDS011;42502;40.732;-74.254;2023-04-08T08:07:54;0.30;;;0.15;;
56629;SDS011;42502;40.732;-74.254;2023-04-08T08:09:55;0.20;;;0.10;;
56629;SDS011;42502;40.732;-74.254;2023-04-08T08:11:56;0.40;;;0.20;;
56629;SDS011;42502;40.732;-74.254;2023-04-08T08:13:57;0.25;;;0.15;;
56629;SDS011;42502;40.732;-74.254;2023-04-08T08:16:01;0.20;;;0.20;;
56629;SDS011;42502;40.732;-74.254;2023-04-08T08:18:02;0.30;;;0.17;;
56629;SDS011;42502;40.732;-74.254;2023-04-08T08:20:03;0.10;;;0.10;;
56629;SDS011;42502;40.732;-74.254;2023-04-08T08:22:04;0.20;;;0.15;;
56629;SDS011;42502;40.732;-74.254;2023-04-08T08:24:04;0.30;;;0.13;;
56629;SDS011;42502;40.732;-74.254;2023-04-08T08:26:10;0.20;;;0.15;;
56629;SDS011;42502;40.732;-74.254;2023-04-08T08:28:12;0.20;;;0.15;;
56629;SDS011;42502;40.732;-74.254;2023-04-08T08:30:12;0.20;;;0.20;;
56629;SDS011;42502;40.732;-74.254;2023-04-08T08:32:13;0.47;;;0.10;;
56629;SDS011;42502;40.732;-74.254;2023-04-08T08:34:14;0.32;;;0.20;;
56629;SDS011;42502;40.732;-74.254;2023-04-08T08:36:15;0.10;;;0.10;;
56629;SDS011;42502;40.732;-74.254;2023-04-08T08:38:19;0.20;;;0.20;;
56629;SDS011;42502;40.732;-74.254;2023-04-08T08:40:20;0.20;;;0.10;;
56629;SDS011;42502;40.732;-74.254;2023-04-08T08:42:24;1.17;;;0.20;;
56629;SDS011;42502;40.732;-74.254;2023-04-08T08:44:25;0.20;;;0.10;;
56629;SDS011;42502;40.732;-74.254;2023-04-08T08:46:26;0.20;;;0.20;;
56629;SDS011;42502;40.732;-74.254;2023-04-08T08:48:27;0.40;;;0.20;;
56629;SDS011;42502;40.732;-74.254;2023-04-08T08:50:28;0.10;;;0.10;;
56629;SDS011;42502;40.732;-74.254;2023-04-08T08:52:29;0.30;;;0.20;;
56629;SDS011;42502;40.732;-74.254;2023-04-08T08:54:30;0.20;;;0.10;;
56629;SDS011;42502;40.732;-74.254;2023-04-08T08:56:31;0.10;;;0.10;;
56629;SDS011;42502;40.732;-74.254;2023-04-08T08:58:33;0.30;;;0.10;;
56629;SDS011;42502;40.732;-74.254;2023-04-08T09:00:37;0.40;;;0.10;;
56629;SDS011;42502;40.732;-74.254;2023-04-08T09:02:44;0.10;;;0.10;;
56629;SDS011;42502;40.732;-74.254;2023-04-08T09:04:54;0.20;;;0.20;;
56629;SDS011;42502;40.732;-74.254;2023-04-08T09:07:07;0.60;;;0.10;;
56629;SDS011;42502;40.732;-74.254;2023-04-08T09:09:10;0.20;;;0.20;;
56629;SDS011;42502;40.732;-74.254;2023-04-08T09:11:12;0.10;;;0.10;;
56629;SDS011;42502;40.732;-74.254;2023-04-08T09:13:14;0.13;;;0.10;;
56629;SDS011;42502;40.732;-74.254;2023-04-08T09:15:15;0.20;;;0.10;;
56629;SDS011;42502;40.732;-74.254;2023-04-08T09:17:30;0.10;;;0.10;;
56629;SDS011;42502;40.732;-74.254;2023-04-08T09:19:33;0.20;;;0.20;;
56629;SDS011;42502;40.732;-74.254;2023-04-08T09:21:33;0.10;;;0.10;;
56629;SDS011;42502;40.732;-74.254;2023-04-08T09:23:48;0.40;;;0.10;;
56629;SDS011;42502;40.732;-74.254;2023-04-08T09:25:50;0.20;;;0.20;;
56629;SDS011;42502;40.732;-74.254;2023-04-08T09:27:50;0.30;;;0.20;;
56629;SDS011;42502;40.732;-74.254;2023-04-08T09:29:54;0.15;;;0.10;;
56629;SDS011;42502;40.732;-74.254;2023-04-08T09:32:12;0.52;;;0.20;;
56629;SDS011;42502;40.732;-74.254;2023-04-08T09:34:14;0.30;;;0.10;;
56629;SDS011;42502;40.732;-74.254;2023-04-08T09:36:16;0.10;;;0.10;;
56629;SDS011;42502;40.732;-74.254;2023-04-08T09:38:18;0.10;;;0.10;;
56629;SDS011;42502;40.732;-74.254;2023-04-08T09:40:21;0.30;;;0.20;;
56629;SDS011;42502;40.732;-74.254;2023-04-08T09:42:24;0.20;;;0.13;;
56629;SDS011;42502;40.732;-74.254;2023-04-08T09:44:25;0.30;;;0.20;;
56629;SDS011;42502;40.732;-74.254;2023-04-08T09:49:04;0.20;;;0.20;;
56629;SDS011;42502;40.732;-74.254;2023-04-08T09:51:07;0.20;;;0.10;;
56629;SDS011;42502;40.732;-74.254;2023-04-08T09:55:49;0.20;;;0.20;;
56629;SDS011;42502;40.732;-74.254;2023-04-08T09:57:57;0.20;;;0.15;;
56629;SDS011;42502;40.732;-74.254;2023-04-08T10:00:04;1.23;;;0.10;;
56629;SDS011;42502;40.732;-74.254;2023-04-08T10:02:14;0.10;;;0.10;;
56629;SDS011;42502;40.732;-74.254;2023-04-08T10:04:24;1.65;;;0.20;;
56629;SDS011;42502;40.732;-74.254;2023-04-08T10:06:28;0.10;;;0.10;;
56629;SDS011;42502;40.732;-74.254;2023-04-08T10:08:34;0.20;;;0.20;;
56629;SDS011;42502;40.732;-74.254;2023-04-08T10:10:35;0.10;;;0.10;;
56629;SDS011;42502;40.732;-74.254;2023-04-08T10:12:39;1.10;;;0.10;;
56629;SDS011;42502;40.732;-74.254;2023-04-08T10:14:41;0.10;;;0.10;;
56629;SDS011;42502;40.732;-74.254;2023-04-08T10:16:41;0.63;;;0.20;;
56629;SDS011;42502;40.732;-74.254;2023-04-08T10:18:45;0.10;;;0.10;;
56629;SDS011;42502;40.732;-74.254;2023-04-08T10:20:46;0.20;;;0.20;;
56629;SDS011;42502;40.732;-74.254;2023-04-08T10:22:48;2.00;;;0.10;;
56629;SDS011;42502;40.732;-74.254;2023-04-08T10:27:37;0.80;;;0.10;;
56629;SDS011;42502;40.732;-74.254;2023-04-08T10:29:45;0.40;;;0.20;;
56629;SDS011;42502;40.732;-74.254;2023-04-08T10:31:50;1.90;;;0.20;;
56629;SDS011;42502;40.732;-74.254;2023-04-08T10:33:52;1.60;;;0.20;;
56629;SDS011;42502;40.732;-74.254;2023-04-08T10:37:54;1.77;;;0.20;;
56629;SDS011;42502;40.732;-74.254;2023-04-08T10:39:55;2.72;;;0.20;;
56629;SDS011;42502;40.732;-74.254;2023-04-08T10:41:56;1.02;;;0.20;;
56629;SDS011;42502;40.732;-74.254;2023-04-08T10:43:57;6.32;;;0.25;;
56629;SDS011;42502;40.732;-74.254;2023-04-08T10:45:58;3.53;;;0.30;;
56629;SDS011;42502;40.732;-74.254;2023-04-08T10:48:12;0.55;;;0.10;;
56629;SDS011;42502;40.732;-74.254;2023-04-08T10:50:13;0.65;;;0.30;;
56629;SDS011;42502;40.732;-74.254;2023-04-08T10:52:15;1.80;;;0.28;;
56629;SDS011;42502;40.732;-74.254;2023-04-08T10:54:16;1.75;;;0.20;;
56629;SDS011;42502;40.732;-74.254;2023-04-08T10:56:19;3.63;;;0.10;;
56629;SDS011;42502;40.732;-74.254;2023-04-08T10:58:21;1.35;;;0.30;;
56629;SDS011;42502;40.732;-74.254;2023-04-08T11:00:31;0.52;;;0.20;;
56629;SDS011;42502;40.732;-74.254;2023-04-08T11:02:33;2.92;;;0.40;;
56629;SDS011;42502;40.732;-74.254;2023-04-08T11:04:40;1.05;;;0.20;;
56629;SDS011;42502;40.732;-74.254;2023-04-08T11:06:42;2.53;;;0.30;;
56629;SDS011;42502;40.732;-74.254;2023-04-08T11:08:43;2.03;;;0.20;;
56629;SDS011;42502;40.732;-74.254;2023-04-08T11:10:45;6.55;;;0.30;;
56629;SDS011;42502;40.732;-74.254;2023-04-08T11:12:46;2.30;;;0.10;;
56629;SDS011;42502;40.732;-74.254;2023-04-08T11:14:48;2.03;;;0.30;;
56629;SDS011;42502;40.732;-74.254;2023-04-08T11:16:51;4.97;;;0.30;;
56629;SDS011;42502;40.732;-74.254;2023-04-08T11:18:52;2.20;;;0.20;;
56629;SDS011;42502;40.732;-74.254;2023-04-08T11:20:54;4.25;;;0.20;;
56629;SDS011;42502;40.732;-74.254;2023-04-08T11:22:55;1.33;;;0.20;;
56629;SDS011;42502;40.732;-74.254;2023-04-08T11:24:56;2.40;;;0.20;;
56629;SDS011;42502;40.732;-74.254;2023-04-08T11:27:00;1.85;;;0.20;;
56629;SDS011;42502;40.732;-74.254;2023-04-08T11:29:05;0.93;;;0.20;;
56629;SDS011;42502;40.732;-74.254;2023-04-08T11:31:11;1.67;;;0.20;;
56629;SDS011;42502;40.732;-74.254;2023-04-08T11:33:12;2.38;;;0.20;;
56629;SDS011;42502;40.732;-74.254;2023-04-08T11:35:15;1.90;;;0.20;;
56629;SDS011;42502;40.732;-74.254;2023-04-08T11:37:16;5.35;;;0.30;;
56629;SDS011;42502;40.732;-74.254;2023-04-08T11:39:22;3.08;;;0.30;;
56629;SDS011;42502;40.732;-74.254;2023-04-08T11:41:23;1.27;;;0.10;;
56629;SDS011;42502;40.732;-74.254;2023-04-08T11:43:24;4.03;;;0.22;;
56629;SDS011;42502;40.732;-74.254;2023-04-08T11:45:36;4.10;;;0.30;;
56629;SDS011;42502;40.732;-74.254;2023-04-08T11:47:38;10.32;;;0.20;;
56629;SDS011;42502;40.732;-74.254;2023-04-08T11:49:43;3.00;;;0.30;;
56629;SDS011;42502;40.732;-74.254;2023-04-08T11:51:54;3.17;;;0.30;;
56629;SDS011;42502;40.732;-74.254;2023-04-08T11:53:55;3.22;;;0.30;;
56629;SDS011;42502;40.732;-74.254;2023-04-08T11:55:56;5.88;;;0.30;;
56629;SDS011;42502;40.732;-74.254;2023-04-08T11:58:01;4.78;;;0.40;;
56629;SDS011;42502;40.732;-74.254;2023-04-08T12:00:04;2.67;;;0.40;;
56629;SDS011;42502;40.732;-74.254;2023-04-08T12:02:06;3.55;;;0.38;;
56629;SDS011;42502;40.732;-74.254;2023-04-08T12:04:07;5.43;;;0.35;;
56629;SDS011;42502;40.732;-74.254;2023-04-08T12:08:14;4.95;;;0.60;;
56629;SDS011;42502;40.732;-74.254;2023-04-08T12:10:15;8.18;;;0.73;;
56629;SDS011;42502;40.732;-74.254;2023-04-08T12:12:16;3.50;;;0.40;;
56629;SDS011;42502;40.732;-74.254;2023-04-08T12:14:17;5.60;;;0.40;;
56629;SDS011;42502;40.732;-74.254;2023-04-08T12:16:18;3.70;;;0.40;;
56629;SDS011;42502;40.732;-74.254;2023-04-08T12:18:27;3.65;;;0.40;;